Time;durP1;ratioP1;P1;durP2;ratioP2;P2;SDS_P1;SDS_P2;PMS_P1;PMS_P2;Temp;Humidity;BMP_temperature;BMP_pressure;BME280_temperature;BME280_humidity;BME280_pressure;Samples;Min_cycle;Max_cycle;Signal;HPM_P1;HPM_P2
2021/12/04 00:02:05;;;;;;;3.43;2.73;;;;;;;2.97;100.00;61124.03;5091690;28;20436;-76
2021/12/04 00:04:36;;;;;;;3.40;2.60;;;;;;;2.55;100.00;61077.97;5073130;28;20518;-79
2021/12/04 00:07:10;;;;;;;3.37;2.67;;;;;;;3.61;100.00;61191.56;5091016;28;20944;-79
2021/12/04 00:09:38;;;;;;;2.40;2.20;;;;;;;3.42;100.00;61166.88;5091073;28;20441;-77
2021/12/04 00:12:11;;;;;;;3.90;2.53;;;;;;;3.63;100.00;61193.69;5073191;28;20968;-77
2021/12/04 00:14:39;;;;;;;3.37;2.40;;;;;;;3.59;100.00;61184.94;5090753;28;20445;-77
2021/12/04 00:17:11;;;;;;;3.13;2.43;;;;;;;3.63;100.00;61191.69;5091058;28;20446;-77
2021/12/04 00:19:39;;;;;;;4.63;2.80;;;;;;;3.54;100.00;61184.66;5073308;28;20537;-77
2021/12/04 00:22:11;;;;;;;2.83;2.40;;;;;;;3.28;100.00;61151.97;5090984;28;20442;-79
2021/12/04 00:24:39;;;;;;;2.57;2.23;;;;;;;3.64;100.00;61200.34;5091247;28;20457;-78
2021/12/04 00:27:08;;;;;;;2.70;2.47;;;;;;;2.48;100.00;61067.47;5091896;28;20465;-77
2021/12/04 00:29:36;;;;;;;3.07;2.57;;;;;;;2.25;100.00;61041.09;5091699;28;20480;-78
2021/12/04 00:32:12;;;;;;;3.23;2.47;;;;;;;3.66;100.00;61194.91;5091486;28;20434;-78
2021/12/04 00:34:42;;;;;;;3.27;2.87;;;;;;;2.35;100.00;61056.19;5090936;28;20520;-78
2021/12/04 00:51:01;;;;;;;4.83;3.10;;;;;;;3.67;100.00;61183.38;5094944;28;20580;-77
2021/12/04 00:53:32;;;;;;;3.63;2.63;;;;;;;3.81;100.00;61210.84;5094704;28;20446;-76
2021/12/04 00:56:02;;;;;;;3.00;2.70;;;;;;;3.25;100.00;61156.31;5102152;28;20437;-75
2021/12/04 00:58:36;;;;;;;3.00;2.70;;;;;;;3.71;100.00;61202.72;5098607;28;21003;-75
2021/12/04 01:01:04;;;;;;;3.67;2.80;;;;;;;3.68;100.00;61199.56;5094840;28;20442;-77
2021/12/04 01:03:36;;;;;;;3.37;2.87;;;;;;;3.20;100.00;61146.50;5093970;28;20770;-78
2021/12/04 01:06:04;;;;;;;3.20;2.73;;;;;;;2.03;100.00;61030.28;5094961;28;20480;-78
2021/12/04 01:08:31;;;;;;;4.10;2.80;;;;;;;2.75;100.00;61100.66;5076230;28;20479;-78
2021/12/04 01:11:02;;;;;;;3.77;3.07;;;;;;;2.45;100.00;61069.88;5094139;28;21005;-78
2021/12/04 01:16:20;;;;;;;3.60;3.00;;;;;;;3.71;100.00;61197.69;5094366;28;20502;-75
2021/12/04 01:18:47;;;;;;;3.27;2.93;;;;;;;3.04;100.00;61126.47;5093855;28;20452;-78
2021/12/04 01:21:16;;;;;;;4.47;3.03;;;;;;;3.68;100.00;61199.56;5093843;28;20999;-77
2021/12/04 01:23:44;;;;;;;4.37;3.37;;;;;;;3.05;100.00;61125.00;5093882;28;20499;-78
2021/12/04 01:26:11;;;;;;;4.67;3.30;;;;;;;3.68;100.00;61199.00;5093540;28;20861;-78
2021/12/04 01:28:48;;;;;;;4.00;3.00;;;;;;;3.52;100.00;61177.50;5093641;28;20515;-77
2021/12/04 01:31:15;;;;;;;5.63;3.83;;;;;;;3.19;100.00;61142.94;5093911;28;20437;-77
2021/12/04 01:33:48;;;;;;;4.07;3.30;;;;;;;3.55;100.00;61185.72;5093384;28;20453;-80
2021/12/04 01:36:16;;;;;;;4.37;3.20;;;;;;;3.68;100.00;61197.03;5093786;28;20445;-79
2021/12/04 01:38:44;;;;;;;4.70;3.50;;;;;;;2.71;100.00;61094.44;5075695;28;20441;-77
2021/12/04 01:41:13;;;;;;;4.73;3.80;;;;;;;2.85;100.00;61116.31;5093396;28;20450;-78
2021/12/04 01:43:58;;;;;;;5.77;3.50;;;;;;;3.75;100.00;61206.97;5093372;28;20465;-77
2021/12/04 01:46:34;;;;;;;6.23;3.53;;;;;;;2.97;100.00;61121.53;5093454;28;20914;-76
2021/12/04 01:49:05;;;;;;;5.27;3.70;;;;;;;3.66;100.00;61194.91;5095218;28;20580;-77
2021/12/04 01:51:33;;;;;;;4.43;3.70;;;;;;;2.00;100.00;61019.56;5093515;28;20526;-79
2021/12/04 01:54:08;;;;;;;5.43;3.60;;;;;;;3.45;100.00;61170.03;5093530;28;20846;-76
2021/12/04 01:56:36;;;;;;;8.03;4.03;;;;;;;3.44;100.00;61174.03;5092884;28;20466;-76
2021/12/04 01:59:13;;;;;;;4.33;3.57;;;;;;;3.33;100.00;61152.25;5074266;28;20442;-78
2021/12/04 02:01:41;;;;;;;5.10;3.57;;;;;;;1.88;100.00;61011.31;5093718;28;20440;-78
2021/12/04 02:04:13;;;;;;;5.27;4.00;;;;;;;3.37;100.00;61164.06;5092776;28;20482;-78
2021/12/04 02:06:40;;;;;;;5.63;4.13;;;;;;;3.35;100.00;61164.44;5093856;28;20473;-78
2021/12/04 02:09:10;;;;;;;4.83;4.20;;;;;;;3.36;100.00;61161.00;5093644;28;20426;-78
2021/12/04 02:11:39;;;;;;;4.83;3.57;;;;;;;3.31;100.00;61158.22;5092948;28;20510;-77
2021/12/04 02:14:09;;;;;;;6.33;4.10;;;;;;;3.27;100.00;61158.47;5092822;28;20470;-77
2021/12/04 02:16:38;;;;;;;6.33;4.77;;;;;;;3.33;100.00;61159.81;5092774;28;20441;-77
2021/12/04 02:19:05;;;;;;;6.17;4.20;;;;;;;2.18;100.00;61041.19;5093082;28;20449;-77
2021/12/04 02:21:56;;;;;;;5.17;4.07;;;;;;;3.33;100.00;61162.84;5092899;28;20822;-79
2021/12/04 02:24:24;;;;;;;5.50;4.07;;;;;;;1.54;100.00;60968.22;5090537;28;20456;-76
2021/12/04 02:26:58;;;;;;;7.40;4.63;;;;;;;3.17;100.00;61145.31;5092674;28;20490;-76
2021/12/04 02:29:26;;;;;;;6.73;4.60;;;;;;;1.42;100.00;60961.03;5092709;28;20465;-78
2021/12/04 02:31:59;;;;;;;9.80;5.23;;;;;;;3.12;100.00;61134.97;5093558;28;20430;-77
2021/12/04 02:34:28;;;;;;;6.67;4.70;;;;;;;2.01;100.00;61020.63;5093255;28;20786;-77
2021/12/04 02:36:59;;;;;;;6.57;4.70;;;;;;;1.57;100.00;60976.94;5092791;28;20453;-77
2021/12/04 02:39:30;;;;;;;7.33;4.63;;;;;;;3.19;100.00;61144.91;5074441;28;20487;-78
2021/12/04 02:41:59;;;;;;;7.63;5.27;;;;;;;3.30;100.00;61156.63;5092450;28;20480;-77
2021/12/04 02:44:34;;;;;;;7.20;4.87;;;;;;;3.38;100.00;61165.13;5092616;28;20434;-77
2021/12/04 02:47:04;;;;;;;6.77;4.87;;;;;;;3.05;100.00;61127.53;5092020;28;20843;-77
2021/12/04 02:49:49;;;;;;;8.40;5.17;;;;;;;3.43;100.00;61170.44;5092425;28;20449;-77
2021/12/04 02:52:23;;;;;;;7.63;5.20;;;;;;;3.37;100.00;61159.03;5092256;28;20984;-78
2021/12/04 02:54:52;;;;;;;9.40;5.27;;;;;;;2.28;100.00;61048.75;5093165;28;20458;-78
2021/12/04 02:57:23;;;;;;;7.73;5.47;;;;;;;3.34;100.00;61158.34;5092075;28;20534;-79
2021/12/04 02:59:53;;;;;;;7.23;4.93;;;;;;;1.60;100.00;60975.13;5092081;28;20483;-77
2021/12/04 03:02:24;;;;;;;7.73;5.70;;;;;;;1.67;100.00;60982.03;5092109;28;20455;-77
2021/12/04 03:05:09;;;;;;;7.73;5.47;;;;;;;3.45;100.00;61175.06;5091988;28;20492;-79
2021/12/04 03:07:39;;;;;;;7.67;5.10;;;;;;;3.37;100.00;61167.09;5102701;28;20481;-77
2021/12/04 03:10:09;;;;;;;8.37;5.67;;;;;;;3.19;100.00;61142.41;5095773;28;20502;-74
2021/12/04 03:12:43;;;;;;;7.73;5.67;;;;;;;3.48;100.00;61175.75;5092920;28;20485;-76
2021/12/04 03:15:13;;;;;;;8.20;5.87;;;;;;;3.45;100.00;61170.03;5092046;28;20860;-80
2021/12/04 03:17:42;;;;;;;7.90;5.70;;;;;;;3.45;100.00;61175.06;5091660;28;20441;-75
2021/12/04 03:20:21;;;;;;;10.20;6.53;;;;;;;3.27;100.00;61151.44;5091728;28;21029;-77
2021/12/04 03:25:33;;;;;;;7.97;5.03;;;;;;;3.48;100.00;61175.75;5091671;28;20449;-76
2021/12/04 03:28:06;;;;;;;8.60;5.63;;;;;;;3.13;100.00;61141.06;5073599;28;20623;-77
2021/12/04 03:30:40;;;;;;;7.33;4.90;;;;;;;2.23;100.00;61045.97;5091650;28;20478;-77
2021/12/04 03:41:28;;;;;;;7.57;5.13;;;;;;;3.26;100.00;61154.88;5091282;28;20409;-78
2021/12/04 03:43:56;;;;;;;6.93;5.00;;;;;;;3.23;100.00;61152.22;5092100;28;20425;-74
2021/12/04 03:46:26;;;;;;;8.60;5.87;;;;;;;3.26;100.00;61154.88;5091670;28;20444;-75
2021/12/04 03:48:55;;;;;;;7.90;5.73;;;;;;;3.23;100.00;61151.69;5091736;28;20433;-76
2021/12/04 03:51:23;;;;;;;8.63;5.73;;;;;;;1.54;100.00;60970.72;5091756;28;20902;-76
2021/12/04 03:53:55;;;;;;;7.27;5.37;;;;;;;1.67;100.00;60982.03;5091357;28;20445;-76
2021/12/04 03:56:28;;;;;;;7.87;5.53;;;;;;;1.83;100.00;61004.03;5091425;28;20438;-77
2021/12/04 03:58:56;;;;;;;7.63;5.60;;;;;;;2.72;100.00;61097.50;5091608;28;20441;-76
2021/12/04 04:01:27;;;;;;;7.47;5.50;;;;;;;3.13;100.00;61141.06;5091520;28;20437;-77
2021/12/04 04:03:56;;;;;;;8.80;5.70;;;;;;;2.18;100.00;61036.16;5073398;28;20442;-78
2021/12/04 04:06:30;;;;;;;8.53;5.73;;;;;;;3.01;100.00;61123.28;5090952;28;20914;-78
2021/12/04 04:09:03;;;;;;;8.13;5.67;;;;;;;2.24;100.00;61047.56;5091787;28;20959;-76
2021/12/04 04:11:35;;;;;;;7.93;5.53;;;;;;;2.06;100.00;61022.88;5091444;28;20445;-76
2021/12/04 04:14:03;;;;;;;9.97;5.60;;;;;;;2.73;100.00;61098.53;5091645;28;20433;-78
2021/12/04 04:16:35;;;;;;;11.30;6.13;;;;;;;2.84;100.00;61110.25;5090860;28;20441;-77
2021/12/04 04:19:02;;;;;;;10.90;6.70;;;;;;;1.50;100.00;60963.97;5091754;28;20457;-76
2021/12/04 04:21:30;;;;;;;10.23;6.53;;;;;;;2.86;100.00;61107.34;5090921;28;20806;-74
2021/12/04 04:23:59;;;;;;;11.53;6.67;;;;;;;1.35;100.00;60953.09;5075522;28;20541;-75
2021/12/04 04:26:26;;;;;;;9.30;5.73;;;;;;;2.80;100.00;61100.97;5094775;28;20449;-76
2021/12/04 04:28:54;;;;;;;12.17;6.30;;;;;;;2.65;100.00;61088.06;5095046;28;21012;-76
2021/12/04 04:31:25;;;;;;;9.80;6.87;;;;;;;2.76;100.00;61097.22;5096649;28;20441;-77
2021/12/04 04:34:00;;;;;;;10.57;6.83;;;;;;;2.76;100.00;61101.75;5094772;28;21029;-78
2021/12/04 04:39:36;;;;;;;9.20;6.67;;;;;;;2.76;100.00;61102.25;5094078;28;20449;-78
2021/12/04 04:58:55;;;;;;;9.73;6.23;;;;;;;1.48;100.00;60961.84;5094563;28;20451;-77
2021/12/04 05:12:23;;;;;;;8.70;5.63;;;;;;;2.55;100.00;61075.47;5094481;28;20470;-77
2021/12/04 05:14:56;;;;;;;7.50;5.53;;;;;;;2.65;100.00;61085.56;5094290;28;20955;-76
2021/12/04 05:17:52;;;;;;;8.20;5.67;;;;;;;2.68;100.00;61093.75;5095652;28;20437;-77
2021/12/04 05:20:32;;;;;;;8.97;5.80;;;;;;;2.71;100.00;61096.41;5102917;28;20465;-75
2021/12/04 05:23:00;;;;;;;8.07;5.30;;;;;;;2.67;100.00;61092.69;5094524;28;20430;-76
2021/12/04 05:25:31;;;;;;;9.17;5.63;;;;;;;2.75;100.00;61103.72;5094593;28;20450;-77
2021/12/04 05:28:02;;;;;;;9.33;5.17;;;;;;;1.64;100.00;60983.84;5094215;28;20496;-77
2021/12/04 05:30:34;;;;;;;8.83;5.90;;;;;;;2.69;100.00;61091.78;5094424;28;20421;-76
2021/12/04 05:33:03;;;;;;;9.43;5.73;;;;;;;2.64;100.00;61084.47;5094208;28;20544;-79
2021/12/04 05:35:32;;;;;;;8.20;5.47;;;;;;;2.73;100.00;61098.53;5091757;28;20833;-76
2021/12/04 05:38:00;;;;;;;8.47;5.87;;;;;;;2.79;100.00;61099.88;5093920;28;20446;-76
2021/12/04 05:40:28;;;;;;;9.10;6.10;;;;;;;2.81;100.00;61102.00;5093344;28;20453;-77
2021/12/04 05:43:03;;;;;;;9.90;5.73;;;;;;;1.78;100.00;60996.19;5092817;28;20473;-77
2021/12/04 05:45:37;;;;;;;8.83;5.83;;;;;;;2.88;100.00;61114.50;5094096;28;20524;-78
2021/12/04 05:48:10;;;;;;;8.73;5.60;;;;;;;2.86;100.00;61107.34;5093771;28;20473;-77
2021/12/04 05:53:26;;;;;;;7.93;5.77;;;;;;;1.64;100.00;60978.84;5091345;28;20462;-77
2021/12/04 05:55:56;;;;;;;8.90;5.83;;;;;;;2.78;100.00;61103.88;5076051;28;20956;-76
2021/12/04 05:58:30;;;;;;;9.90;6.37;;;;;;;2.79;100.00;61097.38;5093914;28;20818;-77
2021/12/04 06:01:00;;;;;;;9.10;6.00;;;;;;;1.26;100.00;60949.09;5093086;28;20446;-76
2021/12/04 06:03:29;;;;;;;10.27;6.40;;;;;;;2.86;100.00;61112.38;5093097;28;20453;-75
2021/12/04 06:05:57;;;;;;;8.43;5.90;;;;;;;2.88;100.00;61114.50;5093649;28;20554;-78
2021/12/04 06:08:25;;;;;;;12.40;7.60;;;;;;;2.83;100.00;61109.16;5093680;28;20953;-78
2021/12/04 06:10:56;;;;;;;10.17;6.37;;;;;;;0.93;100.00;60909.06;5093150;28;20438;-77
2021/12/04 06:13:26;;;;;;;10.50;6.93;;;;;;;2.42;100.00;61068.66;5093160;28;20486;-76
2021/12/04 06:15:58;;;;;;;10.53;7.37;;;;;;;2.43;100.00;61065.22;5092976;28;20868;-76
2021/12/04 06:18:29;;;;;;;12.20;7.27;;;;;;;2.46;100.00;61065.91;5093417;28;20430;-78
2021/12/04 06:23:41;;;;;;;11.37;7.57;;;;;;;2.69;100.00;61089.25;5092873;28;20449;-76
2021/12/04 06:26:09;;;;;;;11.30;7.37;;;;;;;2.14;100.00;61034.41;5092860;28;20460;-78
2021/12/04 06:28:40;;;;;;;11.90;7.23;;;;;;;2.72;100.00;61097.50;5092459;28;20595;-76
2021/12/04 06:31:10;;;;;;;11.03;7.47;;;;;;;1.96;100.00;61012.81;5093494;28;20430;-78
2021/12/04 06:33:38;;;;;;;13.80;8.03;;;;;;;1.23;100.00;60940.34;5092862;28;20513;-78
2021/12/04 06:36:07;;;;;;;12.30;7.40;;;;;;;1.87;100.00;61013.28;5092744;28;20434;-78
2021/12/04 06:38:36;;;;;;;16.33;8.77;;;;;;;1.39;100.00;60952.81;5074182;28;20774;-77
2021/12/04 06:41:05;;;;;;;13.03;8.70;;;;;;;1.58;100.00;60977.47;5092466;28;20442;-76
2021/12/04 06:43:33;;;;;;;15.77;8.57;;;;;;;2.89;100.00;61110.50;5092401;28;20515;-81
2021/12/04 06:46:06;;;;;;;13.17;8.33;;;;;;;1.46;100.00;60959.72;5092371;28;20434;-77
2021/12/04 06:48:39;;;;;;;12.37;8.00;;;;;;;2.92;100.00;61118.75;5074181;28;20473;-78
2021/12/04 06:51:13;;;;;;;13.80;8.57;;;;;;;1.41;100.00;60951.94;5093579;28;20882;-78
2021/12/04 06:53:47;;;;;;;14.97;8.33;;;;;;;1.95;100.00;61011.75;5074786;28;20529;-76
2021/12/04 06:56:16;;;;;;;15.77;9.53;;;;;;;1.44;100.00;60958.16;5092275;28;20552;-76
2021/12/04 06:58:48;;;;;;;16.00;9.47;;;;;;;2.40;100.00;61062.03;5092725;28;20439;-77
2021/12/04 07:01:19;;;;;;;14.70;8.97;;;;;;;1.80;100.00;60995.28;5092343;28;20517;-78
2021/12/04 07:03:46;;;;;;;14.13;8.73;;;;;;;3.29;100.00;61150.50;5092731;28;20429;-77
2021/12/04 07:08:58;;;;;;;15.97;9.13;;;;;;;3.41;100.00;61171.38;5090012;28;20477;-78
2021/12/04 07:11:27;;;;;;;14.30;8.57;;;;;;;3.44;100.00;61169.00;5073815;28;20514;-77
2021/12/04 07:13:58;;;;;;;14.70;9.40;;;;;;;3.57;100.00;61182.81;5094762;28;20450;-78
2021/12/04 07:16:30;;;;;;;16.30;9.67;;;;;;;2.46;100.00;61065.91;5074076;28;20532;-75
2021/12/04 07:18:59;;;;;;;14.97;9.43;;;;;;;3.71;100.00;61202.72;5091981;28;20450;-77
2021/12/04 07:21:26;;;;;;;15.37;9.73;;;;;;;2.34;100.00;61052.63;5091554;28;20454;-77
2021/12/04 07:23:53;;;;;;;15.30;9.10;;;;;;;2.39;100.00;61060.97;5091989;28;20433;-76
2021/12/04 07:26:22;;;;;;;15.73;9.87;;;;;;;2.27;100.00;61050.75;5091762;28;20442;-76
2021/12/04 07:28:49;;;;;;;17.03;10.47;;;;;;;3.61;100.00;61192.09;5092074;28;20492;-77
2021/12/04 07:31:20;;;;;;;17.33;9.80;;;;;;;2.82;100.00;61108.13;5100603;28;20438;-77
2021/12/04 07:33:52;;;;;;;16.10;9.57;;;;;;;3.33;100.00;61159.81;5091473;28;20441;-79
2021/12/04 07:36:24;;;;;;;15.00;8.77;;;;;;;3.49;100.00;61176.28;5091889;28;20453;-78
2021/12/04 07:38:52;;;;;;;18.70;10.13;;;;;;;3.56;100.00;61184.28;5091845;28;20462;-76
2021/12/04 07:41:23;;;;;;;19.73;10.40;;;;;;;3.65;100.00;61193.81;5091577;28;20972;-79
2021/12/04 07:43:49;;;;;;;17.67;10.13;;;;;;;2.48;100.00;61070.53;5091272;28;20485;-78
2021/12/04 07:46:18;;;;;;;18.87;10.23;;;;;;;3.78;100.00;61204.63;5091238;28;20438;-77
2021/12/04 07:48:47;;;;;;;14.97;9.37;;;;;;;2.37;100.00;61058.84;5091707;28;20473;-75
2021/12/04 07:51:22;;;;;;;16.50;9.73;;;;;;;4.16;100.00;61245.56;5091521;28;20434;-77
2021/12/04 07:53:51;;;;;;;12.27;8.60;;;;;;;2.68;100.00;61096.28;5091464;28;20445;-79
2021/12/04 07:56:38;;;;;;;16.80;9.20;;;;;;;4.64;100.00;61295.59;5091264;28;20612;-76
2021/12/04 07:59:07;;;;;;;13.90;8.80;;;;;;;4.89;100.00;61324.75;5089632;28;20445;-76
2021/12/04 08:01:35;;;;;;;13.30;8.83;;;;;;;3.93;100.00;61221.09;5091460;28;20932;-80
2021/12/04 08:04:03;;;;;;;17.67;9.60;;;;;;;4.07;100.00;61237.97;5074106;28;20434;-78
2021/12/04 08:06:33;;;;;;;17.43;9.97;;;;;;;4.37;100.00;61266.88;5091180;28;20450;-76
2021/12/04 08:09:00;;;;;;;13.63;9.43;;;;;;;3.12;100.00;61135.50;5092044;28;20488;-77
2021/12/04 08:11:32;;;;;;;18.03;10.63;;;;;;;4.17;100.00;61246.63;5091238;28;20426;-76
2021/12/04 08:14:02;;;;;;;16.40;10.93;;;;;;;4.49;100.00;61284.69;5091362;28;20521;-76
2021/12/04 08:16:32;;;;;;;15.93;10.10;;;;;;;5.00;100.00;61333.94;5091352;28;20433;-75
2021/12/04 08:19:00;;;;;;;13.37;8.43;;;;;;;3.73;100.00;61204.84;5091114;28;20442;-79
2021/12/04 08:21:31;;;;;;;12.97;8.63;;;;;;;3.67;100.00;61195.41;5091311;28;20491;-76
2021/12/04 08:24:01;;;;;;;14.90;9.60;;;;;;;5.00;100.00;61334.47;5091261;28;20442;-77
2021/12/04 08:26:28;;;;;;;14.27;8.83;;;;;;;5.09;100.00;61346.06;5090521;28;20450;-78
2021/12/04 08:28:57;;;;;;;13.97;8.00;;;;;;;3.99;100.00;61230.00;5090917;28;20492;-77
2021/12/04 08:31:25;;;;;;;16.27;9.60;;;;;;;5.21;100.00;61356.31;5090848;28;20438;-76
2021/12/04 08:33:52;;;;;;;13.70;8.17;;;;;;;5.51;100.00;61388.28;5095207;28;20856;-78
2021/12/04 08:36:32;;;;;;;15.87;9.13;;;;;;;5.67;100.00;61410.38;5090975;28;20445;-79
2021/12/04 08:39:09;;;;;;;13.50;8.73;;;;;;;5.80;100.00;61419.16;5091301;28;20458;-77
2021/12/04 08:41:38;;;;;;;14.03;8.67;;;;;;;5.90;100.00;61429.84;5090450;28;20515;-78
2021/12/04 08:44:12;;;;;;;16.00;8.97;;;;;;;6.25;100.00;61471.16;5089828;28;20607;-80
2021/12/04 08:46:40;;;;;;;11.70;7.97;;;;;;;5.33;100.00;61366.03;5090908;28;20422;-79
2021/12/04 08:49:08;;;;;;;12.10;8.70;;;;;;;6.23;100.00;61466.50;5090750;28;20473;-78
2021/12/04 08:51:42;;;;;;;15.63;9.27;;;;;;;5.57;100.00;61394.66;5091012;28;20444;-77
2021/12/04 08:54:13;;;;;;;17.00;9.90;;;;;;;6.43;100.00;61490.91;5090485;28;20811;-78
2021/12/04 08:56:42;;;;;;;15.60;9.43;;;;;;;6.38;100.00;61490.09;5090378;28;20901;-79
2021/12/04 08:59:27;;;;;;;15.93;9.60;;;;;;;6.71;100.00;61520.22;5091308;28;20418;-78
2021/12/04 09:01:55;;;;;;;14.73;9.50;;;;;;;6.60;100.00;61503.44;5091054;28;20449;-78
2021/12/04 09:04:27;;;;;;;17.97;9.60;;;;;;;6.37;100.00;61481.44;5090224;28;20886;-78
2021/12/04 09:06:59;;;;;;;17.07;10.37;;;;;;;6.39;100.00;61481.56;5090389;28;20505;-77
2021/12/04 09:09:31;;;;;;;15.13;10.03;;;;;;;6.52;100.00;61495.44;5091775;28;20493;-78
2021/12/04 09:12:06;;;;;;;19.73;11.53;;;;;;;6.11;100.00;61451.19;5094266;28;20971;-80
2021/12/04 09:14:37;;;;;;;17.07;10.27;;;;;;;6.65;100.00;61513.84;5094679;28;20451;-77
2021/12/04 09:17:07;;;;;;;17.60;10.33;;;;;;;6.49;100.00;61494.22;5094188;28;20433;-77
2021/12/04 09:19:36;;;;;;;16.70;11.03;;;;;;;6.10;100.00;61453.16;5094365;28;20868;-79
2021/12/04 09:22:05;;;;;;;17.07;10.97;;;;;;;6.14;100.00;61456.91;5094236;28;20434;-77
2021/12/04 09:24:39;;;;;;;15.00;9.90;;;;;;;6.04;100.00;61444.25;5094680;28;20477;-78
2021/12/04 09:27:13;;;;;;;14.10;9.83;;;;;;;5.81;100.00;61425.31;5094442;28;20439;-76
2021/12/04 09:30:01;;;;;;;17.37;9.07;;;;;;;6.05;100.00;61445.31;5094549;28;20485;-77
2021/12/04 10:00:30;;;;;;;18.43;10.93;;;;;;;6.32;100.00;61473.59;5094551;28;20432;-78
2021/12/04 10:17:08;;;;;;;18.83;10.17;;;;;;;6.23;100.00;61466.50;5089621;28;20444;-76
2021/12/04 10:19:50;;;;;;;18.33;10.23;;;;;;;5.35;100.00;61370.69;5094427;28;20446;-77
2021/12/04 10:22:28;;;;;;;14.77;8.87;;;;;;;6.72;100.00;61516.25;5093022;28;20966;-78
2021/12/04 10:40:03;;;;;;;10.10;7.10;;;;;;;6.79;100.00;61523.72;5075430;28;20457;-79
2021/12/04 10:42:44;;;;;;;12.20;7.37;;;;;;;6.79;100.00;61526.25;5093381;28;20556;-80
2021/12/04 10:45:31;;;;;;;11.43;7.93;;;;;;;6.78;100.00;61522.66;5075567;28;20481;-77
2021/12/04 10:48:03;;;;;;;10.77;7.37;;;;;;;7.03;100.00;61551.31;5092359;28;20442;-80
2021/12/04 10:50:42;;;;;;;13.33;7.63;;;;;;;7.00;100.00;61548.13;5091984;28;20481;-77
2021/12/04 10:55:58;;;;;;;13.87;7.40;;;;;;;6.83;100.00;61533.56;5089356;28;20811;-76
2021/12/04 11:01:24;;;;;;;14.83;9.07;;;;;;;6.89;100.00;61533.84;5092668;28;21009;-77
2021/12/04 11:04:06;;;;;;;17.73;11.00;;;;;;;5.62;100.00;61399.97;5093215;28;20448;-77
2021/12/04 11:40:21;;;;;;;17.73;10.33;;;;;;;7.08;100.00;61552.13;5091814;28;20813;-76
2021/12/04 11:42:53;;;;;;;15.07;9.33;;;;;;;5.64;100.00;61402.13;5092107;28;20480;-78
2021/12/04 11:45:31;;;;;;;17.27;9.20;;;;;;;7.04;100.00;61552.94;5091189;28;20467;-76
2021/12/04 11:48:05;;;;;;;15.77;8.27;;;;;;;7.02;100.00;61553.34;5091598;28;20473;-78
2021/12/04 11:50:44;;;;;;;17.27;10.17;;;;;;;5.55;100.00;61392.53;5096472;28;20480;-76
2021/12/04 11:53:16;;;;;;;14.70;9.27;;;;;;;7.06;100.00;61552.53;5093233;28;20494;-76
2021/12/04 11:55:47;;;;;;;18.17;9.33;;;;;;;7.18;100.00;61569.88;5091840;28;20503;-77
2021/12/04 11:58:27;;;;;;;16.50;10.07;;;;;;;7.10;100.00;61556.25;5091777;28;20446;-76
2021/12/04 12:01:09;;;;;;;24.97;12.47;;;;;;;6.90;100.00;61539.97;5091229;28;20453;-77
2021/12/04 12:03:37;;;;;;;19.70;11.67;;;;;;;6.87;100.00;61532.25;5091247;28;20440;-79
2021/12/04 12:06:06;;;;;;;17.10;10.10;;;;;;;6.74;100.00;61518.38;5091687;28;20434;-76
2021/12/04 12:08:38;;;;;;;15.67;9.63;;;;;;;6.76;100.00;61525.59;5073383;28;20444;-77
2021/12/04 12:11:13;;;;;;;17.40;9.70;;;;;;;6.56;100.00;61504.25;5091698;28;20436;-75
2021/12/04 12:13:44;;;;;;;18.10;10.00;;;;;;;6.68;100.00;61511.97;5091227;28;20445;-77
2021/12/04 12:16:23;;;;;;;18.17;10.10;;;;;;;5.93;100.00;61433.06;5091242;28;20964;-77
2021/12/04 12:18:55;;;;;;;17.43;9.60;;;;;;;6.83;100.00;61527.97;5073922;28;20437;-77
2021/12/04 12:21:28;;;;;;;18.67;10.63;;;;;;;5.86;100.00;61430.63;5091185;28;20449;-78
2021/12/04 12:27:17;;;;;;;21.57;10.83;;;;;;;6.87;100.00;61534.78;5091502;28;20606;-77
2021/12/04 12:38:16;;;;;;;20.13;11.00;;;;;;;6.59;100.00;61502.38;5094241;28;20517;-79
2021/12/04 12:41:01;;;;;;;19.20;11.03;;;;;;;6.75;100.00;61521.97;5092319;28;20483;-76
2021/12/04 12:43:43;;;;;;;24.33;13.20;;;;;;;6.59;100.00;61507.97;5090889;28;20508;-76
2021/12/04 12:46:11;;;;;;;18.43;11.37;;;;;;;5.54;100.00;61396.50;5095259;28;20488;-76
2021/12/04 12:48:51;;;;;;;27.13;13.23;;;;;;;6.77;100.00;61522.13;5094961;28;20449;-76
2021/12/04 12:51:31;;;;;;;21.20;11.87;;;;;;;6.68;100.00;61514.50;5076584;28;20437;-78
2021/12/04 12:54:02;;;;;;;21.00;12.40;;;;;;;6.65;100.00;61508.78;5095047;28;20947;-75
2021/12/04 12:56:46;;;;;;;20.47;11.13;;;;;;;6.72;100.00;61516.25;5077136;28;20536;-78
2021/12/04 12:59:33;;;;;;;20.53;11.57;;;;;;;6.65;100.00;61508.78;5095416;28;20503;-78
2021/12/04 13:13:31;;;;;;;24.10;13.13;;;;;;;6.53;100.00;61501.56;5094484;28;20440;-78
2021/12/04 13:16:06;;;;;;;19.23;11.23;;;;;;;6.21;100.00;61464.38;5094223;28;20441;-76
2021/12/04 13:18:37;;;;;;;20.97;12.37;;;;;;;6.49;100.00;61491.69;5094302;28;20441;-76
2021/12/04 13:21:08;;;;;;;19.93;12.93;;;;;;;6.51;100.00;61498.91;5093806;28;20544;-77
2021/12/04 13:23:35;;;;;;;23.87;13.53;;;;;;;6.49;100.00;61494.78;5093804;28;20434;-76
2021/12/04 13:26:05;;;;;;;21.50;13.53;;;;;;;6.47;100.00;61489.56;5093957;28;20449;-76
2021/12/04 13:28:37;;;;;;;24.30;12.83;;;;;;;6.05;100.00;61444.78;5093948;28;21011;-77
2021/12/04 13:31:09;;;;;;;30.40;13.70;;;;;;;6.01;100.00;61443.56;5094412;28;20930;-80
2021/12/04 13:33:39;;;;;;;29.37;15.07;;;;;;;6.66;100.00;61509.84;5093822;28;20442;-78
2021/12/04 13:36:13;;;;;;;24.87;13.57;;;;;;;6.65;100.00;61511.31;5093691;28;20440;-77
2021/12/04 13:38:45;;;;;;;22.77;13.40;;;;;;;6.64;100.00;61508.22;5093766;28;20816;-77
2021/12/04 13:41:14;;;;;;;22.73;11.77;;;;;;;6.75;100.00;61519.44;5093777;28;20438;-77
2021/12/04 13:43:50;;;;;;;22.67;13.87;;;;;;;6.76;100.00;61526.09;5072232;28;20474;-77
2021/12/04 13:46:17;;;;;;;26.57;14.13;;;;;;;5.55;100.00;61392.53;5074001;28;20431;-76
2021/12/04 13:48:46;;;;;;;21.80;13.47;;;;;;;5.45;100.00;61391.44;5073305;28;20500;-76
2021/12/04 13:51:13;;;;;;;26.53;15.60;;;;;;;6.51;100.00;61496.38;5073372;28;20543;-76
2021/12/04 13:53:44;;;;;;;23.87;15.13;;;;;;;6.40;100.00;61482.13;5073461;28;20442;-77
2021/12/04 13:56:13;;;;;;;22.40;12.60;;;;;;;6.56;100.00;61496.66;5072658;28;20504;-77
2021/12/04 13:58:48;;;;;;;22.70;13.40;;;;;;;6.42;100.00;61484.75;5074141;28;20461;-78
2021/12/04 14:01:16;;;;;;;30.07;14.77;;;;;;;6.42;100.00;61481.72;5078513;28;20450;-77
2021/12/04 14:03:44;;;;;;;23.20;14.03;;;;;;;4.81;100.00;61314.22;5076563;28;20918;-76
2021/12/04 14:06:15;;;;;;;28.83;13.87;;;;;;;6.28;100.00;61474.38;5073524;28;20451;-74
2021/12/04 14:08:43;;;;;;;25.03;12.93;;;;;;;6.31;100.00;61478.09;5073857;28;20438;-78
2021/12/04 14:11:11;;;;;;;25.40;13.23;;;;;;;5.82;100.00;61423.84;5073040;28;20556;-77
2021/12/04 14:13:39;;;;;;;27.80;14.80;;;;;;;5.35;100.00;61366.16;5073272;28;20438;-77
2021/12/04 14:16:10;;;;;;;26.53;13.97;;;;;;;6.46;100.00;61491.03;5072782;28;20450;-76
2021/12/04 14:18:42;;;;;;;23.03;12.90;;;;;;;6.50;100.00;61490.78;5072943;28;20493;-77
2021/12/04 14:21:16;;;;;;;28.53;14.37;;;;;;;6.33;100.00;61477.16;5071676;28;20446;-75
2021/12/04 14:23:47;;;;;;;23.23;13.50;;;;;;;6.19;100.00;61462.22;5073624;28;20497;-77
2021/12/04 14:26:15;;;;;;;29.23;14.13;;;;;;;4.92;100.00;61327.94;5073472;28;20761;-77
2021/12/04 14:28:45;;;;;;;28.37;14.27;;;;;;;5.40;100.00;61374.00;5071426;28;20480;-77
2021/12/04 14:31:22;;;;;;;25.47;14.23;;;;;;;4.60;100.00;61291.88;5072804;28;21004;-78
2021/12/04 14:33:49;;;;;;;26.10;14.17;;;;;;;6.01;100.00;61440.50;5071812;28;20529;-76
2021/12/04 14:36:22;;;;;;;31.07;14.23;;;;;;;6.08;100.00;61450.50;5072833;28;20481;-78
2021/12/04 14:38:49;;;;;;;25.57;13.80;;;;;;;4.74;100.00;61308.75;5072688;28;20434;-76
2021/12/04 14:41:17;;;;;;;28.33;14.67;;;;;;;5.85;100.00;61424.53;5072530;28;20438;-76
2021/12/04 14:43:44;;;;;;;24.93;14.90;;;;;;;5.75;100.00;61415.84;5085024;28;20461;-79
2021/12/04 14:46:22;;;;;;;27.73;14.87;;;;;;;5.36;100.00;61372.28;5092827;28;20948;-77
2021/12/04 14:48:57;;;;;;;30.13;15.93;;;;;;;5.71;100.00;61412.13;5074876;28;20441;-76
2021/12/04 14:51:26;;;;;;;30.37;16.10;;;;;;;5.51;100.00;61390.25;5092828;28;20485;-75
2021/12/04 14:53:56;;;;;;;32.57;16.53;;;;;;;5.86;100.00;61427.56;5092803;28;20442;-78